FAM3911 SKBO-SKPS
Flight info
| Callsign | FAM3911 |
|---|---|
| Flight time | 1h 7m |
| Altitude | 31000 |
| Route | VAPOM4R OREGA Z009 PPN W48 MER |
| Aircraft | CL60/M-SBDE1E2E3FGHIJ1J4J5J7M3RWXYZ/LB1V1D1 |
Departure
| Time | 2026-04-19 03:05 |
|---|---|
| Airport | El Dorado International Airport (SKBO) |
Arrival
| Time | 2026-04-19 04:13 |
|---|---|
| Airport | Antonio Nariño Airport (SKPS) |
| Time | Latitude | Longitude | Altitude | Speed | Heading |
|---|---|---|---|---|---|
| 2026-04-19 02:38 | 4.69449 | -74.13266 | 8362 ft | 0 kts | 125° |
| 2026-04-19 02:52 | 4.69449 | -74.13265 | 8362 ft | 0 kts | 126° |
| 2026-04-19 02:52 | 4.69444 | -74.13263 | 8362 ft | 1 kts | 160° |
| 2026-04-19 02:53 | 4.69436 | -74.13264 | 8362 ft | 2 kts | 218° |
| 2026-04-19 02:53 | 4.69441 | -74.13284 | 8362 ft | 5 kts | 315° |
| 2026-04-19 02:53 | 4.69477 | -74.13311 | 8361 ft | 6 kts | 354° |
| 2026-04-19 02:53 | 4.69521 | -74.13288 | 8360 ft | 5 kts | 37° |
| 2026-04-19 02:54 | 4.69569 | -74.13279 | 8359 ft | 7 kts | 2° |
| 2026-04-19 02:54 | 4.69591 | -74.13230 | 8359 ft | 10 kts | 121° |
| 2026-04-19 02:54 | 4.69543 | -74.13164 | 8360 ft | 12 kts | 127° |
| 2026-04-19 02:54 | 4.69483 | -74.13087 | 8359 ft | 15 kts | 128° |
| 2026-04-19 02:55 | 4.69418 | -74.13000 | 8359 ft | 13 kts | 128° |
| 2026-04-19 02:55 | 4.69369 | -74.12936 | 8360 ft | 11 kts | 127° |
| 2026-04-19 02:55 | 4.69318 | -74.12871 | 8361 ft | 12 kts | 127° |
| 2026-04-19 02:55 | 4.69261 | -74.12794 | 8362 ft | 14 kts | 127° |
| 2026-04-19 02:56 | 4.69198 | -74.12710 | 8363 ft | 15 kts | 127° |
| 2026-04-19 02:56 | 4.69144 | -74.12639 | 8364 ft | 9 kts | 124° |
| 2026-04-19 02:56 | 4.69132 | -74.12574 | 8364 ft | 8 kts | 81° |
| 2026-04-19 02:56 | 4.69162 | -74.12531 | 8364 ft | 5 kts | 30° |
| 2026-04-19 02:57 | 4.69174 | -74.12526 | 8364 ft | 0 kts | 24° |
| 2026-04-19 03:01 | 4.69182 | -74.12523 | 8364 ft | 3 kts | 19° |
| 2026-04-19 03:02 | 4.69220 | -74.12512 | 8363 ft | 7 kts | 15° |
| 2026-04-19 03:02 | 4.69265 | -74.12502 | 8362 ft | 6 kts | 7° |
| 2026-04-19 03:02 | 4.69296 | -74.12508 | 8361 ft | 2 kts | 314° |
| 2026-04-19 03:02 | 4.69296 | -74.12509 | 8361 ft | 0 kts | 312° |
| 2026-04-19 03:04 | 4.69297 | -74.12511 | 8361 ft | 4 kts | 312° |
| 2026-04-19 03:04 | 4.69485 | -74.12757 | 8360 ft | 80 kts | 307° |
| 2026-04-19 03:05 | 4.69954 | -74.13375 | 8354 ft | 138 kts | 307° |
| 2026-04-19 03:05 | 4.70623 | -74.14262 | 8371 ft | 179 kts | 307° |
| 2026-04-19 03:05 | 4.71362 | -74.15263 | 8857 ft | 181 kts | 306° |
| 2026-04-19 03:05 | 4.72128 | -74.16283 | 9378 ft | 189 kts | 306° |
| 2026-04-19 03:06 | 4.72972 | -74.17424 | 9582 ft | 217 kts | 307° |
| 2026-04-19 03:06 | 4.73927 | -74.18683 | 9988 ft | 235 kts | 307° |
| 2026-04-19 03:06 | 4.74927 | -74.20029 | 10532 ft | 246 kts | 302° |
| 2026-04-19 03:06 | 4.75541 | -74.21677 | 11050 ft | 257 kts | 274° |
| 2026-04-19 03:07 | 4.75350 | -74.23465 | 11656 ft | 263 kts | 259° |
| 2026-04-19 03:07 | 4.74973 | -74.25276 | 12178 ft | 273 kts | 259° |
| 2026-04-19 03:07 | 4.74581 | -74.27219 | 12587 ft | 288 kts | 259° |
| 2026-04-19 03:07 | 4.74181 | -74.29211 | 13058 ft | 299 kts | 259° |
| 2026-04-19 03:08 | 4.73763 | -74.31281 | 13672 ft | 304 kts | 259° |
| 2026-04-19 03:08 | 4.73343 | -74.33370 | 14321 ft | 308 kts | 259° |
| 2026-04-19 03:08 | 4.72917 | -74.35486 | 14977 ft | 310 kts | 259° |
| 2026-04-19 03:08 | 4.72493 | -74.37587 | 15613 ft | 312 kts | 259° |
| 2026-04-19 03:09 | 4.72063 | -74.39716 | 16236 ft | 315 kts | 259° |
| 2026-04-19 03:09 | 4.71606 | -74.41862 | 16843 ft | 317 kts | 255° |
| 2026-04-19 03:09 | 4.70686 | -74.43866 | 17415 ft | 321 kts | 236° |
| 2026-04-19 03:09 | 4.69116 | -74.45467 | 17939 ft | 327 kts | 220° |
| 2026-04-19 03:10 | 4.67274 | -74.46865 | 18472 ft | 331 kts | 219° |
| 2026-04-19 03:10 | 4.65442 | -74.48261 | 19024 ft | 333 kts | 219° |
| 2026-04-19 03:10 | 4.63620 | -74.49651 | 19553 ft | 335 kts | 219° |
| 2026-04-19 03:10 | 4.61769 | -74.51063 | 20075 ft | 336 kts | 220° |
| 2026-04-19 03:11 | 4.59884 | -74.52504 | 20598 ft | 338 kts | 219° |
| 2026-04-19 03:11 | 4.58019 | -74.53928 | 21100 ft | 341 kts | 219° |
| 2026-04-19 03:11 | 4.56104 | -74.55392 | 21577 ft | 345 kts | 220° |
| 2026-04-19 03:11 | 4.54188 | -74.56857 | 21961 ft | 352 kts | 220° |
| 2026-04-19 03:12 | 4.52230 | -74.58353 | 22344 ft | 358 kts | 220° |
| 2026-04-19 03:12 | 4.50223 | -74.59888 | 22730 ft | 363 kts | 220° |
| 2026-04-19 03:12 | 4.48203 | -74.61432 | 23112 ft | 368 kts | 220° |
| 2026-04-19 03:12 | 4.46168 | -74.62987 | 23490 ft | 373 kts | 220° |
| 2026-04-19 03:13 | 4.44088 | -74.64578 | 23874 ft | 377 kts | 220° |
| 2026-04-19 03:13 | 4.42000 | -74.66174 | 24254 ft | 381 kts | 219° |
| 2026-04-19 03:13 | 4.39947 | -74.67877 | 24637 ft | 382 kts | 228° |
| 2026-04-19 03:13 | 4.38412 | -74.70027 | 25025 ft | 382 kts | 243° |
| 2026-04-19 03:14 | 4.37205 | -74.72373 | 25391 ft | 385 kts | 243° |
| 2026-04-19 03:14 | 4.35975 | -74.74766 | 25767 ft | 388 kts | 243° |
| 2026-04-19 03:14 | 4.34733 | -74.77177 | 26134 ft | 390 kts | 243° |
| 2026-04-19 03:14 | 4.33479 | -74.79609 | 26508 ft | 393 kts | 243° |
| 2026-04-19 03:15 | 4.32228 | -74.82037 | 26839 ft | 395 kts | 243° |
| 2026-04-19 03:15 | 4.30949 | -74.84518 | 27180 ft | 397 kts | 243° |
| 2026-04-19 03:15 | 4.29674 | -74.86992 | 27504 ft | 399 kts | 243° |
| 2026-04-19 03:15 | 4.28409 | -74.89447 | 27780 ft | 402 kts | 242° |
| 2026-04-19 03:16 | 4.27122 | -74.91947 | 28046 ft | 404 kts | 242° |
| 2026-04-19 03:16 | 4.25819 | -74.94475 | 28315 ft | 406 kts | 242° |
| 2026-04-19 03:16 | 4.24540 | -74.96957 | 28571 ft | 408 kts | 242° |
| 2026-04-19 03:16 | 4.23226 | -74.99507 | 28732 ft | 412 kts | 242° |
| 2026-04-19 03:17 | 4.21899 | -75.02081 | 28853 ft | 417 kts | 242° |
| 2026-04-19 03:17 | 4.20513 | -75.04667 | 28962 ft | 421 kts | 237° |
| 2026-04-19 03:17 | 4.18801 | -75.07066 | 29069 ft | 424 kts | 232° |
| 2026-04-19 03:17 | 4.17014 | -75.09431 | 29197 ft | 428 kts | 232° |
| 2026-04-19 03:18 | 4.15221 | -75.11820 | 29356 ft | 430 kts | 232° |
| 2026-04-19 03:18 | 4.13411 | -75.14231 | 29540 ft | 432 kts | 232° |
| 2026-04-19 03:18 | 4.11610 | -75.16630 | 29727 ft | 433 kts | 232° |
| 2026-04-19 03:18 | 4.09797 | -75.19047 | 29921 ft | 434 kts | 232° |
| 2026-04-19 03:19 | 4.07968 | -75.21485 | 30112 ft | 435 kts | 232° |
| 2026-04-19 03:19 | 4.06140 | -75.23923 | 30287 ft | 436 kts | 232° |
| 2026-04-19 03:19 | 4.04336 | -75.26327 | 30452 ft | 438 kts | 232° |
| 2026-04-19 03:19 | 4.02508 | -75.28767 | 30617 ft | 439 kts | 232° |
| 2026-04-19 03:20 | 4.00673 | -75.31214 | 30770 ft | 440 kts | 232° |
| 2026-04-19 03:20 | 3.98831 | -75.33672 | 30915 ft | 441 kts | 232° |
| 2026-04-19 03:20 | 3.96967 | -75.36158 | 31028 ft | 443 kts | 232° |
| 2026-04-19 03:20 | 3.95112 | -75.38633 | 31151 ft | 444 kts | 232° |
| 2026-04-19 03:21 | 3.93280 | -75.41077 | 31290 ft | 445 kts | 232° |
| 2026-04-19 03:21 | 3.91399 | -75.43586 | 31448 ft | 446 kts | 232° |
| 2026-04-19 03:21 | 3.89541 | -75.46066 | 31595 ft | 446 kts | 232° |
| 2026-04-19 03:21 | 3.87680 | -75.48537 | 31725 ft | 447 kts | 230° |
| 2026-04-19 03:22 | 3.85574 | -75.50790 | 31840 ft | 446 kts | 220° |
| 2026-04-19 03:22 | 3.83135 | -75.52764 | 31947 ft | 447 kts | 217° |
| 2026-04-19 03:22 | 3.80690 | -75.54659 | 32042 ft | 448 kts | 217° |
| 2026-04-19 03:22 | 3.78228 | -75.56579 | 32148 ft | 449 kts | 217° |
| 2026-04-19 03:23 | 3.75744 | -75.58518 | 32265 ft | 450 kts | 217° |
| 2026-04-19 03:23 | 3.73285 | -75.60441 | 32380 ft | 451 kts | 217° |
| 2026-04-19 03:23 | 3.70809 | -75.62379 | 32491 ft | 451 kts | 217° |
| 2026-04-19 03:23 | 3.68340 | -75.64313 | 32596 ft | 452 kts | 217° |
| 2026-04-19 03:24 | 3.65884 | -75.66238 | 32697 ft | 453 kts | 217° |
| 2026-04-19 03:24 | 3.63388 | -75.68196 | 32828 ft | 452 kts | 217° |
| 2026-04-19 03:24 | 3.60927 | -75.70129 | 32972 ft | 452 kts | 217° |
| 2026-04-19 03:25 | 3.55937 | -75.74048 | 33060 ft | 455 kts | 217° |
| 2026-04-19 03:25 | 3.50926 | -75.77988 | 33047 ft | 458 kts | 217° |
| 2026-04-19 03:26 | 3.45914 | -75.81930 | 33051 ft | 459 kts | 217° |
| 2026-04-19 03:26 | 3.40908 | -75.85869 | 33052 ft | 459 kts | 217° |
| 2026-04-19 03:27 | 3.35866 | -75.89836 | 33064 ft | 461 kts | 217° |
| 2026-04-19 03:27 | 3.30836 | -75.93795 | 33076 ft | 462 kts | 217° |
| 2026-04-19 03:28 | 3.25770 | -75.97781 | 33087 ft | 463 kts | 217° |
| 2026-04-19 03:28 | 3.20720 | -76.01756 | 33099 ft | 463 kts | 217° |
| 2026-04-19 03:29 | 3.15655 | -76.05740 | 33108 ft | 464 kts | 217° |
| 2026-04-19 03:29 | 3.10588 | -76.09727 | 33114 ft | 464 kts | 217° |
| 2026-04-19 03:30 | 3.05531 | -76.13706 | 33114 ft | 464 kts | 217° |
| 2026-04-19 03:30 | 3.00423 | -76.17725 | 33137 ft | 463 kts | 217° |
| 2026-04-19 03:31 | 2.95368 | -76.21664 | 33172 ft | 463 kts | 217° |
| 2026-04-19 03:31 | 2.90229 | -76.25637 | 33205 ft | 463 kts | 217° |
| 2026-04-19 03:32 | 2.85134 | -76.29578 | 33222 ft | 464 kts | 217° |
| 2026-04-19 03:32 | 2.80040 | -76.33517 | 33219 ft | 464 kts | 217° |
| 2026-04-19 03:33 | 2.74927 | -76.37472 | 33220 ft | 464 kts | 217° |
| 2026-04-19 03:33 | 2.69827 | -76.41415 | 33221 ft | 463 kts | 217° |
| 2026-04-19 03:34 | 2.64742 | -76.45348 | 33219 ft | 463 kts | 217° |
| 2026-04-19 03:34 | 2.59725 | -76.49386 | 33216 ft | 463 kts | 218° |
| 2026-04-19 03:35 | 2.54723 | -76.53432 | 33216 ft | 463 kts | 218° |
| 2026-04-19 03:35 | 2.49695 | -76.57497 | 32912 ft | 466 kts | 218° |
| 2026-04-19 03:35 | 2.47196 | -76.59517 | 32414 ft | 465 kts | 218° |
| 2026-04-19 03:36 | 2.44665 | -76.61564 | 31777 ft | 460 kts | 218° |
| 2026-04-19 03:36 | 2.42228 | -76.63546 | 31151 ft | 455 kts | 218° |
| 2026-04-19 03:36 | 2.39775 | -76.65545 | 30516 ft | 450 kts | 218° |
| 2026-04-19 03:36 | 2.37366 | -76.67508 | 29873 ft | 445 kts | 218° |
| 2026-04-19 03:37 | 2.34993 | -76.69441 | 29223 ft | 441 kts | 218° |
| 2026-04-19 03:37 | 2.32604 | -76.71386 | 28507 ft | 438 kts | 219° |
| 2026-04-19 03:37 | 2.30251 | -76.73302 | 27781 ft | 436 kts | 219° |
| 2026-04-19 03:37 | 2.27943 | -76.75182 | 27063 ft | 433 kts | 219° |
| 2026-04-19 03:38 | 2.25593 | -76.77094 | 26287 ft | 432 kts | 220° |
| 2026-04-19 03:38 | 2.23262 | -76.78992 | 25508 ft | 429 kts | 220° |
| 2026-04-19 03:38 | 2.20955 | -76.80871 | 24750 ft | 427 kts | 220° |
| 2026-04-19 03:38 | 2.18688 | -76.82716 | 24012 ft | 423 kts | 220° |
| 2026-04-19 03:39 | 2.16425 | -76.84557 | 23304 ft | 419 kts | 220° |
| 2026-04-19 03:39 | 2.14186 | -76.86379 | 22771 ft | 412 kts | 220° |
| 2026-04-19 03:39 | 2.11985 | -76.88171 | 22225 ft | 406 kts | 220° |
| 2026-04-19 03:39 | 2.09802 | -76.89947 | 21696 ft | 400 kts | 220° |
| 2026-04-19 03:40 | 2.07654 | -76.91695 | 21169 ft | 394 kts | 220° |
| 2026-04-19 03:40 | 2.05558 | -76.93401 | 20663 ft | 389 kts | 220° |
| 2026-04-19 03:40 | 2.03477 | -76.95094 | 20155 ft | 383 kts | 220° |
| 2026-04-19 03:40 | 2.01426 | -76.96764 | 19657 ft | 377 kts | 220° |
| 2026-04-19 03:41 | 1.99413 | -76.98402 | 19167 ft | 372 kts | 220° |
| 2026-04-19 03:41 | 1.97433 | -77.00014 | 18686 ft | 366 kts | 220° |
| 2026-04-19 03:41 | 1.95484 | -77.01600 | 18215 ft | 361 kts | 220° |
| 2026-04-19 03:41 | 1.93570 | -77.03157 | 17565 ft | 354 kts | 220° |
| 2026-04-19 03:42 | 1.91706 | -77.04675 | 17115 ft | 340 kts | 220° |
| 2026-04-19 03:42 | 1.89894 | -77.06149 | 16671 ft | 329 kts | 220° |
| 2026-04-19 03:42 | 1.88156 | -77.07563 | 16259 ft | 317 kts | 220° |
| 2026-04-19 03:42 | 1.86483 | -77.08925 | 15860 ft | 315 kts | 220° |
| 2026-04-19 03:43 | 1.84772 | -77.10319 | 15478 ft | 317 kts | 220° |
| 2026-04-19 03:43 | 1.83064 | -77.11710 | 15029 ft | 316 kts | 220° |
| 2026-04-19 03:43 | 1.81380 | -77.13081 | 14622 ft | 313 kts | 220° |
| 2026-04-19 03:43 | 1.79706 | -77.14444 | 14212 ft | 310 kts | 220° |
| 2026-04-19 03:44 | 1.77940 | -77.15672 | 13808 ft | 309 kts | 210° |
| 2026-04-19 03:44 | 1.76046 | -77.16678 | 13610 ft | 305 kts | 209° |
| 2026-04-19 03:44 | 1.74165 | -77.17678 | 13326 ft | 310 kts | 209° |
| 2026-04-19 03:44 | 1.72280 | -77.18683 | 13030 ft | 304 kts | 209° |
| 2026-04-19 03:45 | 1.70463 | -77.19651 | 12737 ft | 289 kts | 209° |
| 2026-04-19 03:45 | 1.68711 | -77.20586 | 12510 ft | 281 kts | 209° |
| 2026-04-19 03:45 | 1.66984 | -77.21508 | 12243 ft | 281 kts | 209° |
| 2026-04-19 03:45 | 1.65266 | -77.22425 | 11989 ft | 280 kts | 209° |
| 2026-04-19 03:46 | 1.63549 | -77.23343 | 11727 ft | 279 kts | 209° |
| 2026-04-19 03:46 | 1.61847 | -77.24252 | 11471 ft | 278 kts | 209° |
| 2026-04-19 03:46 | 1.60143 | -77.25163 | 11213 ft | 277 kts | 209° |
| 2026-04-19 03:46 | 1.58430 | -77.26080 | 10954 ft | 276 kts | 209° |
| 2026-04-19 03:47 | 1.56733 | -77.26987 | 10699 ft | 275 kts | 209° |
| 2026-04-19 03:47 | 1.55046 | -77.27889 | 10444 ft | 274 kts | 209° |
| 2026-04-19 03:47 | 1.53364 | -77.28786 | 10191 ft | 273 kts | 208° |
| 2026-04-19 03:47 | 1.51693 | -77.29634 | 9944 ft | 272 kts | 207° |
| 2026-04-19 03:48 | 1.49987 | -77.30489 | 9692 ft | 271 kts | 207° |
| 2026-04-19 03:48 | 1.48314 | -77.31329 | 9447 ft | 267 kts | 207° |
| 2026-04-19 03:48 | 1.46699 | -77.32137 | 9389 ft | 247 kts | 207° |
| 2026-04-19 03:48 | 1.45172 | -77.32903 | 8934 ft | 243 kts | 207° |
| 2026-04-19 03:49 | 1.43725 | -77.33629 | 8805 ft | 221 kts | 207° |
| 2026-04-19 03:49 | 1.42451 | -77.34274 | 8809 ft | 188 kts | 207° |
| 2026-04-19 03:49 | 1.41344 | -77.34835 | 8642 ft | 169 kts | 207° |
| 2026-04-19 03:49 | 1.40324 | -77.35349 | 8688 ft | 161 kts | 207° |
| 2026-04-19 03:50 | 1.39313 | -77.35857 | 8784 ft | 166 kts | 207° |
| 2026-04-19 03:50 | 1.38233 | -77.36352 | 8737 ft | 180 kts | 200° |
| 2026-04-19 03:50 | 1.36991 | -77.36532 | 8417 ft | 176 kts | 177° |
| 2026-04-19 03:50 | 1.35837 | -77.36239 | 8188 ft | 172 kts | 157° |
| 2026-04-19 03:51 | 1.34853 | -77.35574 | 7937 ft | 170 kts | 137° |
| 2026-04-19 03:51 | 1.34177 | -77.34632 | 7707 ft | 168 kts | 116° |
| 2026-04-19 03:51 | 1.33869 | -77.33509 | 7469 ft | 167 kts | 96° |
| 2026-04-19 03:51 | 1.33966 | -77.32352 | 7234 ft | 166 kts | 76° |
| 2026-04-19 03:52 | 1.34439 | -77.31317 | 6995 ft | 166 kts | 56° |
| 2026-04-19 03:52 | 1.35244 | -77.30496 | 6765 ft | 165 kts | 36° |
| 2026-04-19 03:52 | 1.36256 | -77.30001 | 6532 ft | 165 kts | 17° |
| 2026-04-19 03:52 | 1.37362 | -77.29707 | 6305 ft | 165 kts | 14° |
| 2026-04-19 03:53 | 1.38468 | -77.29406 | 6095 ft | 165 kts | 17° |
| 2026-04-19 03:53 | 1.39573 | -77.29106 | 5981 ft | 161 kts | 13° |
| 2026-04-19 03:53 | 1.40704 | -77.28835 | 6224 ft | 181 kts | 13° |
| 2026-04-19 03:53 | 1.41950 | -77.28518 | 6649 ft | 191 kts | 15° |
| 2026-04-19 03:54 | 1.43277 | -77.28162 | 7181 ft | 207 kts | 15° |
| 2026-04-19 03:54 | 1.44690 | -77.27788 | 7782 ft | 211 kts | 13° |
| 2026-04-19 03:54 | 1.46120 | -77.27602 | 8418 ft | 209 kts | 359° |
| 2026-04-19 03:54 | 1.47561 | -77.27779 | 9051 ft | 210 kts | 346° |
| 2026-04-19 03:55 | 1.48992 | -77.28123 | 9679 ft | 217 kts | 346° |
| 2026-04-19 03:55 | 1.50519 | -77.28487 | 10079 ft | 238 kts | 346° |
| 2026-04-19 03:55 | 1.52245 | -77.28899 | 10208 ft | 270 kts | 346° |
| 2026-04-19 03:55 | 1.54081 | -77.29335 | 10592 ft | 270 kts | 346° |
| 2026-04-19 03:56 | 1.55922 | -77.29774 | 10955 ft | 275 kts | 346° |
| 2026-04-19 03:56 | 1.57803 | -77.30222 | 11020 ft | 277 kts | 346° |
| 2026-04-19 03:56 | 1.59671 | -77.30666 | 11018 ft | 274 kts | 346° |
| 2026-04-19 03:56 | 1.61517 | -77.31107 | 11024 ft | 274 kts | 346° |
| 2026-04-19 03:57 | 1.63379 | -77.31551 | 11026 ft | 274 kts | 346° |
| 2026-04-19 03:57 | 1.65214 | -77.31988 | 11028 ft | 274 kts | 346° |
| 2026-04-19 03:57 | 1.67064 | -77.32430 | 11028 ft | 274 kts | 346° |
| 2026-04-19 03:57 | 1.68917 | -77.32873 | 11028 ft | 274 kts | 346° |
| 2026-04-19 03:58 | 1.70760 | -77.33313 | 11028 ft | 274 kts | 346° |
| 2026-04-19 03:58 | 1.72626 | -77.33759 | 11028 ft | 274 kts | 346° |
| 2026-04-19 03:58 | 1.74484 | -77.34203 | 11028 ft | 274 kts | 346° |
| 2026-04-19 03:58 | 1.76327 | -77.34644 | 11028 ft | 274 kts | 346° |
| 2026-04-19 03:59 | 1.78182 | -77.35130 | 11021 ft | 274 kts | 340° |
| 2026-04-19 03:59 | 1.79967 | -77.35792 | 11011 ft | 273 kts | 346° |
| 2026-04-19 03:59 | 1.81839 | -77.35755 | 10994 ft | 274 kts | 19° |
| 2026-04-19 03:59 | 1.83469 | -77.34837 | 11296 ft | 268 kts | 40° |
| 2026-04-19 04:00 | 1.84690 | -77.33419 | 11784 ft | 274 kts | 58° |
| 2026-04-19 04:00 | 1.85445 | -77.31595 | 11988 ft | 293 kts | 77° |
| 2026-04-19 04:00 | 1.85507 | -77.29597 | 11992 ft | 291 kts | 101° |
| 2026-04-19 04:00 | 1.84821 | -77.27711 | 12000 ft | 288 kts | 115° |
| 2026-04-19 04:01 | 1.83956 | -77.25897 | 12006 ft | 288 kts | 115° |
| 2026-04-19 04:01 | 1.82247 | -77.22269 | 12017 ft | 280 kts | 115° |
| 2026-04-19 04:01 | 1.81463 | -77.20606 | 12169 ft | 257 kts | 115° |
| 2026-04-19 04:02 | 1.80682 | -77.18986 | 12030 ft | 256 kts | 119° |
| 2026-04-19 04:02 | 1.79540 | -77.17647 | 11980 ft | 250 kts | 143° |
| 2026-04-19 04:02 | 1.78000 | -77.16901 | 12005 ft | 248 kts | 167° |
| 2026-04-19 04:02 | 1.76299 | -77.16811 | 12027 ft | 247 kts | 190° |
| 2026-04-19 04:03 | 1.74681 | -77.17378 | 12019 ft | 245 kts | 209° |
| 2026-04-19 04:03 | 1.73180 | -77.18188 | 12020 ft | 244 kts | 210° |
| 2026-04-19 04:03 | 1.71697 | -77.18984 | 12007 ft | 244 kts | 210° |
| 2026-04-19 04:03 | 1.70193 | -77.19790 | 12007 ft | 244 kts | 210° |
| 2026-04-19 04:04 | 1.68692 | -77.20594 | 12007 ft | 244 kts | 210° |
| 2026-04-19 04:04 | 1.67206 | -77.21390 | 12006 ft | 244 kts | 210° |
| 2026-04-19 04:04 | 1.65739 | -77.22173 | 12001 ft | 244 kts | 210° |
| 2026-04-19 04:04 | 1.64208 | -77.22993 | 11761 ft | 248 kts | 210° |
| 2026-04-19 04:05 | 1.62713 | -77.23792 | 11554 ft | 242 kts | 209° |
| 2026-04-19 04:05 | 1.61233 | -77.24584 | 11346 ft | 242 kts | 209° |
| 2026-04-19 04:05 | 1.59749 | -77.25378 | 11124 ft | 241 kts | 209° |
| 2026-04-19 04:05 | 1.58289 | -77.26159 | 10907 ft | 240 kts | 209° |
| 2026-04-19 04:06 | 1.56812 | -77.26949 | 10685 ft | 239 kts | 209° |
| 2026-04-19 04:06 | 1.55347 | -77.27733 | 10465 ft | 238 kts | 209° |
| 2026-04-19 04:06 | 1.53888 | -77.28513 | 10245 ft | 237 kts | 209° |
| 2026-04-19 04:06 | 1.52461 | -77.29254 | 10018 ft | 227 kts | 207° |
| 2026-04-19 04:07 | 1.51099 | -77.29936 | 9825 ft | 205 kts | 207° |
| 2026-04-19 04:07 | 1.49822 | -77.30577 | 9615 ft | 206 kts | 207° |
| 2026-04-19 04:07 | 1.48543 | -77.31219 | 9493 ft | 209 kts | 207° |
| 2026-04-19 04:07 | 1.47216 | -77.31884 | 9302 ft | 213 kts | 207° |
| 2026-04-19 04:08 | 1.45895 | -77.32547 | 9091 ft | 213 kts | 207° |
| 2026-04-19 04:08 | 1.44583 | -77.33205 | 8888 ft | 211 kts | 207° |
| 2026-04-19 04:08 | 1.43277 | -77.33861 | 8804 ft | 205 kts | 207° |
| 2026-04-19 04:08 | 1.42045 | -77.34484 | 8826 ft | 190 kts | 207° |
| 2026-04-19 04:09 | 1.40892 | -77.35065 | 8751 ft | 178 kts | 207° |
| 2026-04-19 04:09 | 1.39813 | -77.35606 | 8733 ft | 170 kts | 207° |
| 2026-04-19 04:09 | 1.38761 | -77.36131 | 8763 ft | 167 kts | 206° |
| 2026-04-19 04:09 | 1.37630 | -77.36499 | 8570 ft | 177 kts | 189° |
| 2026-04-19 04:10 | 1.36418 | -77.36445 | 8309 ft | 170 kts | 166° |
| 2026-04-19 04:10 | 1.35355 | -77.35978 | 8081 ft | 169 kts | 146° |
| 2026-04-19 04:10 | 1.34515 | -77.35184 | 7838 ft | 166 kts | 126° |
| 2026-04-19 04:10 | 1.33998 | -77.34157 | 7609 ft | 165 kts | 106° |
| 2026-04-19 04:11 | 1.33862 | -77.33015 | 7376 ft | 164 kts | 86° |
| 2026-04-19 04:11 | 1.34111 | -77.31921 | 7147 ft | 163 kts | 67° |
| 2026-04-19 04:11 | 1.34718 | -77.30965 | 6915 ft | 162 kts | 47° |
| 2026-04-19 04:11 | 1.35590 | -77.30277 | 6691 ft | 161 kts | 28° |
| 2026-04-19 04:12 | 1.36642 | -77.29891 | 6459 ft | 160 kts | 14° |
| 2026-04-19 04:12 | 1.37730 | -77.29610 | 6239 ft | 160 kts | 14° |
| 2026-04-19 04:12 | 1.38815 | -77.29330 | 5938 ft | 161 kts | 14° |
| 2026-04-19 04:12 | 1.39800 | -77.29065 | 5869 ft | 127 kts | 13° |
| 2026-04-19 04:13 | 1.40252 | -77.28938 | 5847 ft | 31 kts | 16° |
| 2026-04-19 04:13 | 1.40410 | -77.28892 | 5835 ft | 20 kts | 15° |
| 2026-04-19 04:13 | 1.40522 | -77.28862 | 5828 ft | 7 kts | 15° |
| 2026-04-19 04:13 | 1.40571 | -77.28848 | 5824 ft | 3 kts | 15° |
| 2026-04-19 04:14 | 1.40588 | -77.28854 | 5823 ft | 2 kts | 286° |
| 2026-04-19 04:14 | 1.40585 | -77.28862 | 5824 ft | 0 kts | 224° |
| 2026-04-19 04:14 | 1.40565 | -77.28869 | 5825 ft | 7 kts | 192° |
| 2026-04-19 04:14 | 1.40519 | -77.28878 | 5828 ft | 5 kts | 190° |
| 2026-04-19 04:15 | 1.40493 | -77.28883 | 5830 ft | 2 kts | 190° |
| 2026-04-19 04:15 | 1.40393 | -77.28904 | 5837 ft | 21 kts | 194° |
| 2026-04-19 04:15 | 1.40260 | -77.28938 | 5846 ft | 17 kts | 194° |
| 2026-04-19 04:15 | 1.40153 | -77.28965 | 5853 ft | 14 kts | 195° |
| 2026-04-19 04:16 | 1.40066 | -77.28989 | 5858 ft | 11 kts | 194° |
| 2026-04-19 04:16 | 1.39990 | -77.29008 | 5861 ft | 14 kts | 194° |
| 2026-04-19 04:16 | 1.39826 | -77.29051 | 5869 ft | 23 kts | 195° |
| 2026-04-19 04:16 | 1.39700 | -77.29082 | 5873 ft | 12 kts | 176° |
| 2026-04-19 04:17 | 1.39657 | -77.29024 | 5873 ft | 9 kts | 144° |
| 2026-04-19 04:17 | 1.39601 | -77.29015 | 5876 ft | 7 kts | 185° |
| 2026-04-19 04:17 | 1.39593 | -77.28998 | 5876 ft | 0 kts | 351° |